createdAt,value
2022-12-01T00:02:29.676Z,23.00
2022-12-01T00:04:58.159Z,23.50
2022-12-01T00:07:28.244Z,24.00
2022-12-01T00:10:15.313Z,25.00
2022-12-01T00:12:45.380Z,22.00
2022-12-01T00:15:14.257Z,23.50
2022-12-01T00:17:45.858Z,23.00
2022-12-01T00:20:16.018Z,25.00
2022-12-01T00:22:46.200Z,23.00
2022-12-01T00:25:16.604Z,24.75
2022-12-01T00:27:50.097Z,24.50
2022-12-01T00:30:20.843Z,26.00
2022-12-01T00:32:49.704Z,23.00
2022-12-01T00:35:18.113Z,23.50
2022-12-01T00:37:46.664Z,23.25
2022-12-01T00:40:14.956Z,23.50
2022-12-01T00:42:43.583Z,24.33
2022-12-01T00:45:11.865Z,24.33
2022-12-01T00:47:41.681Z,21.50
2022-12-01T00:50:11.475Z,23.25
2022-12-01T00:52:40.210Z,23.75
2022-12-01T00:55:09.022Z,24.25
2022-12-01T00:57:39.097Z,22.50
2022-12-01T01:00:08.325Z,24.50
2022-12-01T01:02:40.602Z,24.50
2022-12-01T01:05:09.455Z,26.00
2022-12-01T01:07:38.244Z,23.25
2022-12-01T01:10:07.353Z,26.00
2022-12-01T01:12:35.981Z,25.33
2022-12-01T01:15:06.411Z,24.33
2022-12-01T01:17:36.211Z,25.50
2022-12-01T01:20:04.893Z,24.75
2022-12-01T01:22:35.621Z,25.00
2022-12-01T01:25:03.984Z,24.50
2022-12-01T01:27:35.093Z,25.00
2022-12-01T01:30:05.027Z,24.00
2022-12-01T01:32:34.179Z,26.75
2022-12-01T01:35:02.450Z,24.50
2022-12-01T01:37:32.230Z,27.00
2022-12-01T01:40:00.482Z,24.50
2022-12-01T01:42:29.168Z,24.75
2022-12-01T01:44:59.113Z,26.00
2022-12-01T01:47:32.630Z,26.00
2022-12-01T01:50:06.768Z,24.50
2022-12-01T01:52:59.348Z,25.00
2022-12-01T01:55:29.852Z,24.75
2022-12-01T01:57:58.353Z,24.33
2022-12-01T02:00:26.868Z,25.67
2022-12-01T02:02:56.880Z,24.50
2022-12-01T02:05:28.283Z,25.00
2022-12-01T02:07:58.262Z,26.75
2022-12-01T02:10:51.799Z,25.25
2022-12-01T02:13:27.500Z,27.50
2022-12-01T02:16:18.565Z,26.25
2022-12-01T02:19:04.610Z,24.00
2022-12-01T02:21:32.839Z,24.25
2022-12-01T02:24:09.230Z,25.67
2022-12-01T02:26:49.901Z,27.50
2022-12-01T02:29:40.478Z,28.00
2022-12-01T02:32:43.902Z,29.25
2022-12-01T02:35:21.461Z,26.25
2022-12-01T02:38:14.441Z,26.75
2022-12-01T02:41:05.779Z,26.50
2022-12-01T02:43:46.423Z,26.00
2022-12-01T02:46:31.671Z,28.25
2022-12-01T02:49:04.113Z,27.00
2022-12-01T02:51:35.757Z,29.25
2022-12-01T02:54:05.818Z,25.50
2022-12-01T02:56:34.593Z,26.75
2022-12-01T02:59:03.358Z,25.00
2022-12-01T03:01:38.468Z,24.00
2022-12-01T03:04:06.818Z,26.00
2022-12-01T03:06:45.580Z,25.25
2022-12-01T03:09:38.972Z,27.00
2022-12-01T03:12:21.995Z,23.33
2022-12-01T03:14:56.357Z,24.67
2022-12-01T03:17:29.795Z,24.00
2022-12-01T03:20:09.337Z,24.50
2022-12-01T03:22:52.448Z,27.25
2022-12-01T03:25:23.428Z,26.75
2022-12-01T03:28:20.207Z,26.75
2022-12-01T03:30:46.850Z,26.75
2022-12-01T03:33:26.048Z,27.25
2022-12-01T03:36:15.411Z,26.00
2022-12-01T03:38:47.369Z,25.50
2022-12-01T03:41:24.319Z,25.75
2022-12-01T03:43:58.279Z,25.50
2022-12-01T03:46:48.279Z,23.25
2022-12-01T03:49:18.667Z,26.67
2022-12-01T03:51:58.890Z,24.50
2022-12-01T03:54:45.572Z,25.25
2022-12-01T03:57:29.564Z,24.75
2022-12-01T03:59:58.388Z,25.33
2022-12-01T04:02:28.565Z,23.33
2022-12-01T04:04:57.348Z,23.00
2022-12-01T04:07:25.816Z,25.50
2022-12-01T04:09:54.531Z,23.00
2022-12-01T04:12:35.149Z,22.00
2022-12-01T04:15:13.603Z,22.75
2022-12-01T04:17:46.281Z,23.00
2022-12-01T04:20:16.633Z,23.25
2022-12-01T04:22:45.381Z,22.75
2022-12-01T04:25:13.991Z,23.00
2022-12-01T04:27:42.441Z,22.67
2022-12-01T04:30:11.551Z,21.50
2022-12-01T04:32:41.619Z,22.67
2022-12-01T04:35:11.700Z,21.25
2022-12-01T04:37:40.364Z,24.50
2022-12-01T04:40:10.738Z,21.75
2022-12-01T04:42:38.919Z,23.33
2022-12-01T04:45:08.469Z,23.00
2022-12-01T04:47:36.726Z,22.00
2022-12-01T04:50:07.190Z,22.00
2022-12-01T04:52:38.219Z,21.75
2022-12-01T04:55:08.706Z,20.00
2022-12-01T04:57:37.162Z,20.50
2022-12-01T05:00:13.233Z,21.33
2022-12-01T05:02:43.672Z,21.50
2022-12-01T05:05:13.126Z,21.50
2022-12-01T05:07:41.628Z,22.00
2022-12-01T05:10:13.908Z,21.50
2022-12-01T05:12:42.258Z,20.75
2022-12-01T05:15:12.446Z,22.25
2022-12-01T05:17:41.629Z,20.67
2022-12-01T05:20:37.640Z,22.00
2022-12-01T05:23:06.790Z,18.75
2022-12-01T05:25:37.671Z,20.67
2022-12-01T05:28:06.910Z,19.75
2022-12-01T05:30:36.795Z,21.75
2022-12-01T05:33:05.132Z,21.25
2022-12-01T05:35:35.027Z,21.00
2022-12-01T05:38:07.848Z,20.50
2022-12-01T05:40:38.394Z,20.75
2022-12-01T05:43:07.283Z,19.00
2022-12-01T05:45:36.256Z,18.25
2022-12-01T05:48:05.437Z,19.33
2022-12-01T05:50:34.318Z,18.75
2022-12-01T05:53:02.756Z,20.75
2022-12-01T05:55:34.550Z,19.50
2022-12-01T05:58:03.106Z,21.00
2022-12-01T06:00:32.008Z,20.50
2022-12-01T06:03:00.328Z,19.00
2022-12-01T06:05:28.927Z,19.50
2022-12-01T06:07:57.443Z,20.00
2022-12-01T06:10:27.049Z,19.00
2022-12-01T06:13:13.807Z,19.25
2022-12-01T06:15:42.456Z,19.00
2022-12-01T06:18:10.856Z,17.75
2022-12-01T06:20:39.429Z,19.00
2022-12-01T06:23:07.791Z,19.00
2022-12-01T06:25:36.682Z,19.75
2022-12-01T06:28:04.929Z,20.25
2022-12-01T06:30:33.696Z,19.00
2022-12-01T06:33:02.295Z,20.00
2022-12-01T06:35:30.957Z,20.50
2022-12-01T06:37:59.329Z,19.25
2022-12-01T06:40:28.383Z,19.00
2022-12-01T06:43:01.908Z,19.50
2022-12-01T06:45:31.663Z,19.25
2022-12-01T06:47:59.806Z,20.75
2022-12-01T06:50:28.492Z,19.00
2022-12-01T06:52:59.056Z,20.00
2022-12-01T06:55:27.960Z,19.00
2022-12-01T06:58:02.178Z,19.33
2022-12-01T07:00:31.268Z,20.00
2022-12-01T07:02:59.596Z,18.25
2022-12-01T07:05:28.151Z,18.75
2022-12-01T07:07:59.510Z,20.00
2022-12-01T07:10:28.718Z,19.75
2022-12-01T07:12:57.414Z,20.00
2022-12-01T07:15:25.921Z,21.00
2022-12-01T07:17:54.132Z,19.00
2022-12-01T07:20:22.667Z,19.33
2022-12-01T07:22:50.867Z,19.00
2022-12-01T07:25:19.508Z,19.50
2022-12-01T07:27:47.807Z,18.00
2022-12-01T07:30:16.496Z,19.00
2022-12-01T07:32:44.897Z,19.00
2022-12-01T07:35:15.072Z,18.75
2022-12-01T07:37:43.442Z,20.50
2022-12-01T07:40:12.374Z,19.50
2022-12-01T07:42:43.838Z,20.75
2022-12-01T07:45:12.661Z,20.67
2022-12-01T07:47:40.857Z,20.00
2022-12-01T07:50:09.785Z,21.33
2022-12-01T07:52:38.238Z,17.75
2022-12-01T07:55:08.342Z,20.50
2022-12-01T07:57:36.522Z,19.00
2022-12-01T08:00:06.149Z,18.75
2022-12-01T08:02:40.352Z,20.25
2022-12-01T08:05:09.497Z,20.33
2022-12-01T08:07:37.865Z,23.00
2022-12-01T08:10:06.676Z,23.00
2022-12-01T08:12:35.100Z,22.00
2022-12-01T08:15:04.161Z,20.50
2022-12-01T08:17:32.398Z,22.00
2022-12-01T08:20:02.019Z,19.25
2022-12-01T08:22:30.221Z,21.00
2022-12-01T08:24:58.833Z,21.00
2022-12-01T08:27:27.090Z,19.50
2022-12-01T08:29:57.243Z,21.00
2022-12-01T08:32:25.548Z,21.50
2022-12-01T08:34:54.422Z,22.67
2022-12-01T08:37:22.648Z,20.33
2022-12-01T08:39:52.646Z,20.75
2022-12-01T08:42:21.651Z,23.00
2022-12-01T08:44:50.290Z,21.50
2022-12-01T08:47:19.015Z,20.50
2022-12-01T08:49:48.590Z,20.50
2022-12-01T08:52:16.947Z,20.50
2022-12-01T08:54:45.453Z,21.00
2022-12-01T08:57:13.617Z,19.25
2022-12-01T08:59:45.212Z,20.00
2022-12-01T09:02:16.254Z,19.00
2022-12-01T09:04:46.537Z,20.50
2022-12-01T09:07:20.202Z,19.25
2022-12-01T09:09:51.604Z,20.75
2022-12-01T09:12:20.306Z,18.75
2022-12-01T09:14:49.958Z,20.75
2022-12-01T09:17:19.276Z,20.50
2022-12-01T09:19:48.337Z,21.00
2022-12-01T09:22:16.702Z,19.25
2022-12-01T09:24:45.516Z,19.25
2022-12-01T09:27:13.838Z,20.00
2022-12-01T09:29:42.420Z,20.25
2022-12-01T09:32:10.742Z,19.25
2022-12-01T09:34:39.731Z,19.00
2022-12-01T09:37:08.078Z,19.00
2022-12-01T09:39:36.830Z,19.25
2022-12-01T09:42:13.049Z,18.75
2022-12-01T09:44:47.259Z,19.00
2022-12-01T09:47:26.386Z,19.33
2022-12-01T09:50:04.356Z,20.00
2022-12-01T09:52:48.441Z,18.00
2022-12-01T09:55:20.002Z,19.50
2022-12-01T09:57:50.451Z,19.75
2022-12-01T10:00:22.913Z,19.25
2022-12-01T10:03:33.196Z,20.33
2022-12-01T10:06:26.715Z,18.00
2022-12-01T10:09:18.524Z,19.33
2022-12-01T10:11:48.239Z,19.00
2022-12-01T10:14:20.860Z,19.25
2022-12-01T10:17:11.602Z,21.00
2022-12-01T10:20:05.501Z,19.50
2022-12-01T10:22:46.167Z,19.50
2022-12-01T10:25:24.250Z,21.00
2022-12-01T10:28:07.358Z,19.00
2022-12-01T10:30:39.498Z,20.00
2022-12-01T10:33:58.737Z,19.50
2022-12-01T10:36:29.455Z,17.75
2022-12-01T10:38:58.291Z,19.33
2022-12-01T10:41:29.170Z,19.25
2022-12-01T10:44:01.069Z,21.00
2022-12-01T10:46:55.048Z,17.75
2022-12-01T10:49:37.800Z,18.00
2022-12-01T10:52:07.101Z,19.25
2022-12-01T10:54:40.729Z,16.50
2022-12-01T10:57:15.921Z,17.75
2022-12-01T11:00:02.229Z,18.50
2022-12-01T11:02:33.557Z,18.00
2022-12-01T11:05:07.728Z,19.50
2022-12-01T11:07:43.202Z,17.75
2022-12-01T11:10:24.772Z,16.75
2022-12-01T11:13:04.178Z,17.75
2022-12-01T11:15:39.831Z,19.25
2022-12-01T11:18:24.803Z,18.25
2022-12-01T11:21:14.948Z,17.00
2022-12-01T11:23:50.774Z,20.00
2022-12-01T11:26:25.370Z,16.50
2022-12-01T11:29:07.232Z,19.25
2022-12-01T11:31:47.100Z,17.00
2022-12-01T11:34:20.510Z,18.00
2022-12-01T11:36:52.272Z,17.67
2022-12-01T11:39:32.982Z,18.00
2022-12-01T11:42:04.506Z,18.25
2022-12-01T11:47:25.747Z,16.25
2022-12-01T11:49:59.429Z,17.00
2022-12-01T11:52:36.706Z,19.25
2022-12-01T11:55:11.087Z,16.75
2022-12-01T11:57:46.043Z,16.25
2022-12-01T12:00:21.723Z,20.25
2022-12-01T12:03:17.840Z,21.00
2022-12-01T12:06:38.436Z,21.25
2022-12-01T12:09:19.238Z,19.00
2022-12-01T12:12:10.214Z,19.25
2022-12-01T12:14:48.812Z,19.00
2022-12-01T12:17:26.990Z,21.75
2022-12-01T12:20:09.907Z,21.00
2022-12-01T12:22:55.270Z,20.67
2022-12-01T12:25:34.762Z,22.67
2022-12-01T12:28:28.169Z,22.00
2022-12-01T12:31:10.877Z,20.75
2022-12-01T12:34:13.029Z,21.50
2022-12-01T12:36:47.718Z,23.75
2022-12-01T12:39:50.704Z,22.75
2022-12-01T12:42:39.451Z,20.33
2022-12-01T12:45:20.729Z,20.00
2022-12-01T12:47:51.976Z,19.00
2022-12-01T12:50:36.469Z,22.25
2022-12-01T12:53:13.061Z,21.75
2022-12-01T12:55:45.780Z,21.75
2022-12-01T12:58:29.760Z,22.75
2022-12-01T13:00:59.739Z,20.50
2022-12-01T13:03:47.812Z,19.25
2022-12-01T13:06:26.638Z,20.50
2022-12-01T13:09:35.992Z,21.00
2022-12-01T13:12:31.202Z,20.50
2022-12-01T13:15:22.066Z,20.75
2022-12-01T13:17:54.728Z,20.00
2022-12-01T13:20:28.253Z,21.50
2022-12-01T13:22:58.887Z,18.25
2022-12-01T13:25:34.801Z,20.50
2022-12-01T13:28:04.927Z,19.00
2022-12-01T13:30:34.930Z,18.33
2022-12-01T13:33:05.274Z,19.50
2022-12-01T13:35:38.664Z,19.00
2022-12-01T13:38:36.029Z,19.00
2022-12-01T13:41:19.990Z,19.25
2022-12-01T13:43:58.803Z,19.25
2022-12-01T13:46:37.188Z,18.00
2022-12-01T13:49:34.937Z,19.25
2022-12-01T13:52:22.152Z,19.00
2022-12-01T13:55:08.668Z,20.50
2022-12-01T13:57:45.620Z,17.50
2022-12-01T14:00:34.959Z,17.75
2022-12-01T14:03:17.795Z,19.00
2022-12-01T14:06:00.018Z,18.00
2022-12-01T14:08:31.123Z,18.00
2022-12-01T14:11:03.847Z,17.75
2022-12-01T14:13:45.899Z,19.33
2022-12-01T14:16:14.484Z,19.00
2022-12-01T14:18:54.744Z,18.00
2022-12-01T14:21:47.034Z,19.00
2022-12-01T14:24:28.061Z,19.25
2022-12-01T14:26:56.449Z,19.00
2022-12-01T14:29:31.362Z,18.00
2022-12-01T14:32:10.389Z,19.67
2022-12-01T14:34:40.506Z,18.00
2022-12-01T14:37:15.240Z,19.75
2022-12-01T14:39:59.503Z,18.50
2022-12-01T14:43:12.901Z,20.75
2022-12-01T14:46:02.264Z,20.25
2022-12-01T14:48:43.727Z,19.00
2022-12-01T14:51:23.704Z,20.75
2022-12-01T14:53:53.067Z,19.25
2022-12-01T14:56:25.090Z,18.67
2022-12-01T14:58:54.569Z,17.25
2022-12-01T15:01:24.735Z,19.50
2022-12-01T15:03:59.318Z,17.25
2022-12-01T15:06:29.453Z,18.67
2022-12-01T15:09:32.988Z,20.25
2022-12-01T15:12:01.957Z,18.00
2022-12-01T15:14:48.598Z,19.50
2022-12-01T15:17:36.206Z,17.00
2022-12-01T15:20:24.641Z,19.00
2022-12-01T15:22:53.498Z,18.00
2022-12-01T15:25:22.163Z,20.33
2022-12-01T15:28:19.728Z,20.25
2022-12-01T15:30:58.108Z,19.00
2022-12-01T15:33:36.605Z,19.67
2022-12-01T15:36:07.841Z,18.25
2022-12-01T15:38:37.607Z,18.00
2022-12-01T15:44:00.780Z,19.50
2022-12-01T15:46:34.902Z,18.00
2022-12-01T15:49:16.719Z,19.00
2022-12-01T15:51:45.918Z,19.00
2022-12-01T15:54:26.766Z,19.00
2022-12-01T15:56:57.009Z,18.00
2022-12-01T15:59:40.687Z,18.00
2022-12-01T16:02:12.881Z,20.33
2022-12-01T16:04:41.769Z,21.00
2022-12-01T16:07:11.707Z,21.50
2022-12-01T16:09:55.550Z,21.50
2022-12-01T16:12:29.615Z,23.00
2022-12-01T16:15:01.368Z,22.00
2022-12-01T16:17:42.240Z,23.00
2022-12-01T16:20:27.274Z,21.75
2022-12-01T16:22:59.353Z,23.00
2022-12-01T16:25:39.943Z,21.75
2022-12-01T16:28:21.649Z,25.33
2022-12-01T16:30:50.993Z,25.00
2022-12-01T16:33:23.302Z,23.67
2022-12-01T16:35:52.956Z,23.00
2022-12-01T16:38:26.815Z,21.75
2022-12-01T16:40:58.946Z,23.00
2022-12-01T16:43:28.989Z,23.00
2022-12-01T16:46:03.522Z,22.75
2022-12-01T16:48:32.235Z,22.75
2022-12-01T16:51:06.357Z,20.33
2022-12-01T16:53:34.714Z,22.75
2022-12-01T16:56:03.709Z,22.50
2022-12-01T16:58:32.202Z,21.00
2022-12-01T17:01:00.929Z,21.75
2022-12-01T17:03:29.362Z,21.50
2022-12-01T17:06:01.040Z,21.33
2022-12-01T17:08:29.468Z,21.00
2022-12-01T17:10:58.130Z,22.00
2022-12-01T17:13:26.890Z,22.75
2022-12-01T17:15:56.907Z,20.75
2022-12-01T17:18:25.367Z,21.00
2022-12-01T17:21:05.319Z,21.50
2022-12-01T17:23:34.030Z,24.00
2022-12-01T17:26:02.749Z,22.75
2022-12-01T17:28:31.219Z,24.00
2022-12-01T17:31:01.510Z,24.00
2022-12-01T17:33:30.161Z,25.50
2022-12-01T17:36:08.178Z,24.50
2022-12-01T17:38:38.546Z,25.25
2022-12-01T17:41:13.389Z,26.00
2022-12-01T17:43:42.556Z,22.50
2022-12-01T17:46:12.623Z,24.00
2022-12-01T17:48:43.500Z,25.25
2022-12-01T17:51:15.057Z,22.75
2022-12-01T17:53:43.580Z,23.00
2022-12-01T17:56:15.428Z,23.00
2022-12-01T17:58:44.115Z,25.75
2022-12-01T18:01:16.257Z,23.00
2022-12-01T18:03:45.228Z,22.00
2022-12-01T18:06:16.429Z,25.75
2022-12-01T18:08:45.322Z,22.50
2022-12-01T18:11:16.462Z,24.50
2022-12-01T18:13:47.767Z,23.00
2022-12-01T18:16:19.725Z,24.50
2022-12-01T18:18:48.155Z,22.00
2022-12-01T18:21:19.346Z,23.00
2022-12-01T18:23:52.677Z,24.25
2022-12-01T18:26:22.476Z,24.50
2022-12-01T18:29:00.358Z,23.75
2022-12-01T18:31:30.568Z,23.50
2022-12-01T18:34:02.790Z,24.00
2022-12-01T18:36:33.439Z,23.00
2022-12-01T18:39:04.085Z,23.00
2022-12-01T18:41:32.758Z,23.25
2022-12-01T18:44:01.540Z,25.25
2022-12-01T18:46:31.590Z,21.50
2022-12-01T18:49:03.311Z,25.50
2022-12-01T18:51:34.598Z,23.50
2022-12-01T18:54:04.758Z,25.75
2022-12-01T18:56:34.510Z,24.00
2022-12-01T18:59:06.706Z,23.33
2022-12-01T19:01:39.926Z,23.00
2022-12-01T19:04:11.129Z,21.75
2022-12-01T19:06:41.873Z,24.00
2022-12-01T19:09:12.344Z,22.00
2022-12-01T19:11:43.275Z,26.00
2022-12-01T19:14:15.761Z,21.50
2022-12-01T19:16:45.221Z,24.67
2022-12-01T19:19:13.712Z,26.00
2022-12-01T19:21:45.708Z,22.25
2022-12-01T19:24:14.878Z,24.00
2022-12-01T19:26:45.060Z,24.00
2022-12-01T19:29:14.131Z,22.00
2022-12-01T19:31:43.034Z,24.00
2022-12-01T19:34:11.595Z,23.75
2022-12-01T19:36:40.339Z,24.50
2022-12-01T19:39:09.137Z,24.00
2022-12-01T19:41:38.928Z,25.00
2022-12-01T19:44:07.419Z,22.33
2022-12-01T19:46:36.224Z,24.50
2022-12-01T19:49:06.029Z,24.75
2022-12-01T19:51:37.204Z,23.75
2022-12-01T19:54:13.744Z,24.00
2022-12-01T19:56:44.250Z,27.00
2022-12-01T19:59:14.615Z,27.50
2022-12-01T20:01:43.371Z,27.25
2022-12-01T20:04:11.940Z,27.00
2022-12-01T20:06:40.591Z,27.50
2022-12-01T20:09:09.678Z,28.33
2022-12-01T20:11:39.466Z,23.67
2022-12-01T20:14:08.028Z,25.75
2022-12-01T20:16:37.259Z,26.25
2022-12-01T20:19:06.704Z,26.50
2022-12-01T20:21:39.444Z,26.00
2022-12-01T20:24:08.794Z,26.25
2022-12-01T20:26:40.361Z,29.67
2022-12-01T20:29:11.936Z,29.00
2022-12-01T20:31:40.793Z,26.50
2022-12-01T20:34:15.304Z,27.00
2022-12-01T20:36:44.620Z,25.50
2022-12-01T20:39:14.529Z,25.75
2022-12-01T20:41:44.695Z,27.25
2022-12-01T20:44:14.352Z,24.50
2022-12-01T20:46:46.171Z,28.50
2022-12-01T20:49:16.174Z,27.25
2022-12-01T20:51:45.145Z,29.75
2022-12-01T20:54:30.739Z,28.33
2022-12-01T20:56:59.951Z,27.50
2022-12-01T20:59:29.482Z,29.00
2022-12-01T21:01:59.395Z,28.50
2022-12-01T21:04:27.855Z,30.50
2022-12-01T21:06:57.424Z,28.50
2022-12-01T21:09:26.514Z,28.50
2022-12-01T21:12:15.762Z,25.75
2022-12-01T21:15:27.641Z,28.25
2022-12-01T21:18:02.613Z,26.00
2022-12-01T21:20:33.840Z,27.50
2022-12-01T21:23:14.012Z,25.25
2022-12-01T21:25:43.426Z,25.00
2022-12-01T21:28:24.400Z,26.67
2022-12-01T21:31:11.711Z,26.00
2022-12-01T21:33:42.299Z,24.33
2022-12-01T21:36:22.507Z,26.00
2022-12-01T21:38:56.077Z,25.50
2022-12-01T21:41:27.251Z,26.50
2022-12-01T21:44:12.246Z,25.50
2022-12-01T21:46:42.640Z,26.33
2022-12-01T21:49:21.236Z,26.75
2022-12-01T21:51:51.350Z,25.33
2022-12-01T21:54:22.391Z,28.25
2022-12-01T21:56:53.049Z,25.75
2022-12-01T21:59:23.540Z,27.00
2022-12-01T22:01:57.739Z,24.50
2022-12-01T22:04:30.483Z,25.00
2022-12-01T22:06:59.136Z,24.33
2022-12-01T22:09:35.658Z,26.50
2022-12-01T22:12:14.281Z,24.00
2022-12-01T22:14:44.024Z,26.00
2022-12-01T22:17:22.445Z,24.50
2022-12-01T22:19:57.546Z,24.25
2022-12-01T22:22:27.844Z,24.50
2022-12-01T22:25:22.984Z,24.50
2022-12-01T22:27:51.795Z,25.00
2022-12-01T22:30:22.644Z,24.00
2022-12-01T22:33:04.080Z,24.25
2022-12-01T22:35:35.374Z,23.00
2022-12-01T22:38:06.579Z,25.00
2022-12-01T22:40:35.591Z,22.00
2022-12-01T22:43:16.199Z,23.50
2022-12-01T22:46:04.693Z,23.75
2022-12-01T22:48:58.418Z,22.50
2022-12-01T22:51:46.907Z,21.25
2022-12-01T22:54:15.226Z,22.00
2022-12-01T22:56:51.358Z,22.00
2022-12-01T22:59:23.292Z,21.75
2022-12-01T23:01:58.531Z,21.50
2022-12-01T23:04:33.693Z,22.33
2022-12-01T23:07:09.957Z,23.00
2022-12-01T23:10:17.646Z,21.50
2022-12-01T23:12:48.436Z,21.25
2022-12-01T23:15:28.145Z,20.50
2022-12-01T23:18:26.233Z,23.00
2022-12-01T23:20:59.891Z,20.75
2022-12-01T23:23:30.869Z,22.00
2022-12-01T23:25:59.732Z,20.50
2022-12-01T23:28:35.500Z,20.50
2022-12-01T23:31:04.103Z,20.75
2022-12-01T23:33:34.597Z,20.00
2022-12-01T23:36:24.132Z,21.50
2022-12-01T23:38:58.627Z,20.25
2022-12-01T23:41:43.148Z,19.75
2022-12-01T23:44:49.975Z,20.25
2022-12-01T23:47:27.471Z,21.00
2022-12-01T23:50:06.550Z,20.50
2022-12-01T23:52:37.082Z,20.00
2022-12-01T23:55:30.600Z,19.25
2022-12-01T23:57:59.174Z,21.00
